Time;durP1;ratioP1;P1;durP2;ratioP2;P2;SDS_P1;SDS_P2;PMS_P1;PMS_P2;Temp;Humidity;BMP_temperature;BMP_pressure;BME280_temperature;BME280_humidity;BME280_pressure;Samples;Min_cycle;Max_cycle;Signal;HPM_P1;HPM_P2
2023/03/03 00:01:45;;;;;;;0.60;0.60;;;;;;;6.88;100.00;97184.59;4984980;28;20058;-59
2023/03/03 00:04:11;;;;;;;0.60;0.60;;;;;;;6.89;100.00;97180.66;4985048;28;20046;-58
2023/03/03 00:06:38;;;;;;;0.60;0.60;;;;;;;6.93;100.00;97169.78;4985170;28;20158;-58
2023/03/03 00:09:05;;;;;;;0.60;0.60;;;;;;;6.77;100.00;97161.41;4985273;28;20058;-59
2023/03/03 00:11:31;;;;;;;0.55;0.55;;;;;;;6.79;100.00;97163.81;4985078;28;20062;-58
2023/03/03 00:13:58;;;;;;;0.60;0.60;;;;;;;6.76;100.00;97162.56;4984983;28;20141;-58
2023/03/03 00:16:25;;;;;;;0.57;0.57;;;;;;;6.86;100.00;97153.81;4983470;28;20078;-58
2023/03/03 00:18:52;;;;;;;0.60;0.60;;;;;;;6.83;100.00;97156.50;4985056;28;20133;-58
2023/03/03 00:21:31;;;;;;;0.60;0.60;;;;;;;6.82;100.00;97144.66;4984689;28;20046;-57
2023/03/03 00:24:22;;;;;;;0.60;0.60;;;;;;;6.82;100.00;97150.16;4985045;28;20057;-57
2023/03/03 00:26:51;;;;;;;0.60;0.60;;;;;;;6.78;100.00;97135.47;4985135;28;20054;-58
2023/03/03 00:29:34;;;;;;;0.60;0.60;;;;;;;6.53;100.00;97139.34;4984613;28;20097;-59
2023/03/03 00:32:07;;;;;;;0.60;0.60;;;;;;;6.60;100.00;97149.78;4984673;28;20089;-57
2023/03/03 00:34:35;;;;;;;0.60;0.60;;;;;;;6.66;100.00;97140.97;4985748;28;20055;-57
2023/03/03 00:37:02;;;;;;;0.60;0.60;;;;;;;6.38;100.00;97075.94;4984590;28;20140;-59
2023/03/03 00:39:37;;;;;;;0.60;0.60;;;;;;;6.81;100.00;97129.28;4984754;28;20081;-59
2023/03/03 00:42:17;;;;;;;0.60;0.60;;;;;;;6.88;100.00;97125.94;4969705;28;20140;-56
2023/03/03 00:44:46;;;;;;;0.57;0.57;;;;;;;6.83;100.00;97115.97;4984751;28;20108;-60
2023/03/03 00:47:27;;;;;;;0.60;0.60;;;;;;;6.56;100.00;97060.84;4985014;28;20464;-59
2023/03/03 00:50:06;;;;;;;0.60;0.60;;;;;;;6.89;100.00;97109.09;4984562;28;20065;-57
2023/03/03 00:52:35;;;;;;;0.57;0.57;;;;;;;6.84;100.00;97094.75;4984485;28;20576;-59
2023/03/03 00:55:03;;;;;;;0.60;0.60;;;;;;;6.47;99.34;97022.41;4983005;28;20050;-59
2023/03/03 00:57:30;;;;;;;0.60;0.60;;;;;;;6.91;99.69;97095.78;4984185;28;20140;-57
2023/03/03 00:59:56;;;;;;;0.60;0.60;;;;;;;6.86;99.28;97085.00;4983916;28;20161;-58
2023/03/03 01:02:23;;;;;;;0.60;0.60;;;;;;;6.79;98.94;97071.03;4983370;28;20059;-57
2023/03/03 01:04:55;;;;;;;0.60;0.60;;;;;;;6.94;98.82;97084.06;4983213;28;20050;-60
2023/03/03 01:07:22;;;;;;;0.60;0.60;;;;;;;6.54;98.09;97013.59;4983550;28;20584;-59
2023/03/03 01:09:49;;;;;;;0.60;0.60;;;;;;;6.91;98.75;97079.25;5005199;28;20603;-59
2023/03/03 01:12:15;;;;;;;0.60;0.60;;;;;;;6.75;98.91;97072.06;5037567;28;20061;-58
2023/03/03 01:14:44;;;;;;;0.60;0.60;;;;;;;6.88;98.74;97079.16;5040642;28;20073;-58
2023/03/03 01:17:11;;;;;;;0.60;0.60;;;;;;;6.85;98.61;97071.56;5064458;28;20623;-58
2023/03/03 01:19:37;;;;;;;0.60;0.60;;;;;;;6.78;98.90;97072.16;5064455;28;21061;-59
2023/03/03 01:22:04;;;;;;;0.60;0.60;;;;;;;6.77;99.20;97067.81;5063919;28;20589;-57
2023/03/03 01:24:30;;;;;;;0.60;0.60;;;;;;;6.77;99.01;97067.81;5063815;28;20549;-58
2023/03/03 01:26:57;;;;;;;0.60;0.60;;;;;;;6.43;99.22;97021.50;5047005;28;20102;-57
2023/03/03 01:29:24;;;;;;;0.60;0.60;;;;;;;6.46;98.64;97012.56;5063180;28;20053;-59
2023/03/03 01:31:50;;;;;;;0.60;0.60;;;;;;;6.86;97.40;97064.94;5046370;28;20052;-59
2023/03/03 01:34:17;;;;;;;0.60;0.60;;;;;;;6.82;97.61;97064.81;5035849;28;20059;-60
2023/03/03 01:36:44;;;;;;;0.60;0.60;;;;;;;6.80;98.28;97072.63;5027674;28;20119;-57
2023/03/03 01:39:11;;;;;;;0.60;0.60;;;;;;;6.79;98.94;97057.25;5026946;28;20132;-58
2023/03/03 01:41:37;;;;;;;0.70;0.70;;;;;;;6.62;97.72;97043.75;5042270;28;20096;-58
2023/03/03 01:44:04;;;;;;;0.60;0.60;;;;;;;6.51;98.44;97045.34;5027147;28;20107;-57
2023/03/03 01:46:41;;;;;;;0.60;0.60;;;;;;;6.78;99.23;97063.91;5027546;28;20393;-59
2023/03/03 01:49:17;;;;;;;0.60;0.60;;;;;;;6.77;100.00;97062.31;5041393;28;20643;-59
2023/03/03 01:52:10;;;;;;;0.60;0.60;;;;;;;6.80;100.00;97066.31;5042194;28;20088;-57
2023/03/03 01:54:42;;;;;;;0.60;0.60;;;;;;;6.25;100.00;97002.81;5027050;28;20049;-57
2023/03/03 01:57:18;;;;;;;0.50;0.50;;;;;;;6.65;100.00;97065.06;5012139;28;20069;-60
2023/03/03 01:59:49;;;;;;;0.50;0.50;;;;;;;6.25;100.00;97025.63;5006718;28;20085;-59
2023/03/03 02:02:17;;;;;;;0.60;0.60;;;;;;;6.44;99.95;97025.84;5006931;28;20057;-57
2023/03/03 02:04:44;;;;;;;0.60;0.60;;;;;;;6.67;100.00;97062.75;5006913;28;20100;-59
2023/03/03 02:07:13;;;;;;;0.60;0.60;;;;;;;6.77;100.00;97076.06;5007398;28;20057;-57
2023/03/03 02:09:58;;;;;;;0.60;0.60;;;;;;;6.90;100.00;97071.34;5003699;28;20177;-59
2023/03/03 02:12:32;;;;;;;0.60;0.60;;;;;;;6.83;100.00;97066.41;4987596;28;20056;-58
2023/03/03 02:14:59;;;;;;;0.60;0.60;;;;;;;6.41;99.41;97009.22;4987667;28;20069;-57
2023/03/03 02:17:25;;;;;;;0.60;0.60;;;;;;;6.83;99.20;97071.94;4987346;28;20116;-58
2023/03/03 02:20:10;;;;;;;0.60;0.60;;;;;;;6.87;99.62;97081.13;4986737;28;20054;-59
2023/03/03 02:22:40;;;;;;;0.60;0.60;;;;;;;6.83;99.01;97071.94;4987162;28;20078;-59
2023/03/03 02:25:13;;;;;;;0.60;0.60;;;;;;;6.86;99.48;97074.00;4986489;28;20054;-57
2023/03/03 02:27:39;;;;;;;0.60;0.60;;;;;;;6.88;99.19;97068.94;4986958;28;20137;-59
2023/03/03 02:30:19;;;;;;;0.60;0.60;;;;;;;6.90;99.30;97071.34;4986191;28;20078;-59
2023/03/03 02:32:46;;;;;;;0.60;0.60;;;;;;;6.73;98.59;97050.41;4986650;28;20054;-58
2023/03/03 02:35:34;;;;;;;0.60;0.60;;;;;;;6.81;98.34;97074.22;4986319;28;20504;-59
2023/03/03 02:38:11;;;;;;;0.65;0.65;;;;;;;6.75;98.95;97064.59;4987362;28;20056;-57
2023/03/03 02:40:44;;;;;;;0.60;0.60;;;;;;;6.84;99.15;97062.53;4986261;28;20146;-58
2023/03/03 02:43:11;;;;;;;0.60;0.60;;;;;;;6.50;99.08;97018.97;4986637;28;20501;-59
2023/03/03 02:45:42;;;;;;;0.60;0.60;;;;;;;6.87;98.89;97072.03;4986198;28;20058;-59
2023/03/03 02:48:09;;;;;;;0.60;0.60;;;;;;;6.42;98.97;96984.13;4986650;28;20097;-58
2023/03/03 02:50:37;;;;;;;0.60;0.60;;;;;;;6.42;98.69;96994.34;5001027;28;20204;-57
2023/03/03 02:53:03;;;;;;;0.60;0.60;;;;;;;6.74;99.04;97051.97;4980782;28;20049;-58
2023/03/03 02:55:30;;;;;;;0.60;0.60;;;;;;;6.89;99.19;97141.34;4985061;28;20488;-59
2023/03/03 02:57:56;;;;;;;0.70;0.70;;;;;;;6.94;98.91;97073.06;5003468;28;20046;-60
2023/03/03 03:00:23;;;;;;;0.60;0.60;;;;;;;6.91;98.68;97062.75;5005697;28;20515;-59
2023/03/03 03:02:50;;;;;;;0.60;0.60;;;;;;;6.95;98.82;97074.69;5005790;28;20500;-59
2023/03/03 03:05:16;;;;;;;0.60;0.60;;;;;;;5.18;97.69;96812.75;5005684;28;20050;-57
2023/03/03 03:07:43;;;;;;;0.60;0.60;;;;;;;6.54;97.74;97030.09;5005698;28;20509;-58
2023/03/03 03:10:10;;;;;;;0.60;0.60;;;;;;;6.77;99.01;97062.31;5005575;28;20116;-57
2023/03/03 03:12:37;;;;;;;0.60;0.60;;;;;;;6.78;98.51;97071.38;5004666;28;20050;-59
2023/03/03 03:15:04;;;;;;;0.60;0.60;;;;;;;6.80;98.44;97064.38;5005540;28;20495;-57
2023/03/03 03:17:30;;;;;;;0.60;0.60;;;;;;;6.83;98.20;97055.41;5005322;28;20507;-58
2023/03/03 03:19:57;;;;;;;0.60;0.60;;;;;;;6.81;98.48;97052.19;5004957;28;20096;-59
2023/03/03 03:22:24;;;;;;;0.57;0.57;;;;;;;6.78;98.33;97052.09;5005544;28;20516;-59
2023/03/03 03:24:50;;;;;;;0.60;0.60;;;;;;;6.82;97.43;97047.50;5005376;28;20133;-59
2023/03/03 03:27:18;;;;;;;0.60;0.60;;;;;;;6.74;97.62;97051.97;5005602;28;20089;-59
2023/03/03 03:29:44;;;;;;;0.60;0.60;;;;;;;6.43;97.90;96991.25;5004993;28;20065;-59
2023/03/03 03:32:11;;;;;;;0.60;0.60;;;;;;;6.79;98.32;97053.69;5005098;28;20559;-60
2023/03/03 03:34:38;;;;;;;0.60;0.60;;;;;;;6.71;98.63;97043.59;5005165;28;20356;-57
2023/03/03 03:37:05;;;;;;;0.60;0.60;;;;;;;6.73;98.36;97044.88;5003216;28;20598;-58
2023/03/03 03:39:32;;;;;;;0.50;0.50;;;;;;;6.72;98.74;97048.78;5003632;28;20459;-57
2023/03/03 03:41:58;;;;;;;0.60;0.60;;;;;;;6.78;98.76;97047.38;5005442;28;20864;-57
2023/03/03 03:44:25;;;;;;;0.60;0.60;;;;;;;6.82;98.63;97048.31;5003645;28;20086;-59
2023/03/03 03:46:51;;;;;;;0.50;0.50;;;;;;;6.77;97.38;97051.28;5004945;28;20141;-57
2023/03/03 03:49:18;;;;;;;0.60;0.60;;;;;;;6.85;97.60;97046.81;5004864;28;20053;-58
2023/03/03 03:51:46;;;;;;;0.60;0.60;;;;;;;6.80;97.48;97050.59;5004555;28;20420;-59
2023/03/03 03:54:13;;;;;;;0.60;0.60;;;;;;;6.84;97.68;97053.47;5020091;28;20089;-58
2023/03/03 03:56:39;;;;;;;0.63;0.63;;;;;;;6.45;97.42;97010.94;5004773;28;20060;-59
2023/03/03 03:59:07;;;;;;;0.60;0.60;;;;;;;6.44;97.91;97003.84;5004903;28;20093;-57
2023/03/03 04:01:33;;;;;;;0.60;0.60;;;;;;;6.66;98.68;97055.66;5003503;28;20104;-58
2023/03/03 04:04:00;;;;;;;0.50;0.50;;;;;;;6.53;98.85;97047.75;5004871;28;20156;-59
2023/03/03 04:06:26;;;;;;;0.60;0.60;;;;;;;6.33;98.92;97019.22;5003545;28;20133;-57
2023/03/03 04:08:54;;;;;;;0.60;0.60;;;;;;;6.46;98.43;97029.06;5004912;28;20132;-57
2023/03/03 04:11:20;;;;;;;0.60;0.60;;;;;;;6.74;98.48;97051.97;5004527;28;20088;-59
2023/03/03 04:13:47;;;;;;;0.60;0.60;;;;;;;6.70;97.63;97051.06;5004783;28;20050;-57
2023/03/03 04:16:14;;;;;;;0.60;0.60;;;;;;;6.42;97.31;97003.38;5004467;28;20598;-57
2023/03/03 04:18:41;;;;;;;0.57;0.57;;;;;;;6.24;97.23;96985.53;5004838;28;20056;-59
2023/03/03 04:21:13;;;;;;;0.50;0.50;;;;;;;6.68;97.41;97063.56;5004047;28;20526;-58
2023/03/03 04:23:40;;;;;;;0.60;0.60;;;;;;;6.70;97.43;97061.28;5004568;28;20141;-59
2023/03/03 04:26:08;;;;;;;0.50;0.50;;;;;;;6.58;97.06;97070.34;5002565;28;20516;-58
2023/03/03 04:28:34;;;;;;;0.60;0.60;;;;;;;6.71;97.32;97069.19;5004873;28;20164;-58
2023/03/03 04:31:01;;;;;;;0.60;0.60;;;;;;;6.74;96.17;97068.50;5003653;28;20567;-60
2023/03/03 04:33:28;;;;;;;0.60;0.60;;;;;;;6.36;95.91;97007.50;5004300;28;20053;-57
2023/03/03 04:35:55;;;;;;;0.60;0.60;;;;;;;6.80;95.57;97063.56;5003901;28;20060;-59
2023/03/03 04:38:22;;;;;;;0.60;0.60;;;;;;;6.63;95.55;97064.59;5004450;28;20065;-57
2023/03/03 04:40:48;;;;;;;0.60;0.60;;;;;;;6.80;94.87;97075.38;5002482;28;20528;-59
2023/03/03 04:43:15;;;;;;;0.60;0.60;;;;;;;6.84;94.76;97062.53;5004314;28;20088;-56
2023/03/03 04:45:43;;;;;;;0.60;0.60;;;;;;;6.77;95.25;97078.00;5004036;28;20097;-57
2023/03/03 04:48:09;;;;;;;0.60;0.60;;;;;;;6.68;95.61;97075.38;5004814;28;20132;-57
2023/03/03 04:50:36;;;;;;;0.60;0.60;;;;;;;6.49;96.23;97066.91;5008227;28;20065;-57
2023/03/03 04:53:03;;;;;;;0.60;0.60;;;;;;;6.32;97.99;97082.81;5008209;28;20053;-58
2023/03/03 04:55:30;;;;;;;0.60;0.60;;;;;;;5.94;100.00;97072.09;5008547;28;20729;-57
2023/03/03 04:57:56;;;;;;;0.60;0.60;;;;;;;5.58;100.00;97064.47;5008017;28;20085;-59
2023/03/03 05:00:23;;;;;;;0.50;0.50;;;;;;;5.67;100.00;97064.41;5007971;28;20119;-58
2023/03/03 05:02:50;;;;;;;0.50;0.50;;;;;;;5.41;100.00;97072.06;5007924;28;20116;-58
2023/03/03 05:05:16;;;;;;;0.50;0.50;;;;;;;5.43;100.00;97065.13;5007688;28;20054;-59
2023/03/03 05:07:43;;;;;;;0.50;0.50;;;;;;;5.00;100.00;96967.78;5007850;28;20057;-58
2023/03/03 05:10:10;;;;;;;0.52;0.52;;;;;;;5.84;100.00;97067.00;5007778;28;20058;-57
2023/03/03 05:12:37;;;;;;;0.50;0.50;;;;;;;5.91;100.00;97072.78;5007465;28;20054;-58
2023/03/03 05:15:05;;;;;;;0.50;0.50;;;;;;;5.66;100.00;97066.34;5008051;28;20100;-57
2023/03/03 05:17:31;;;;;;;0.50;0.50;;;;;;;5.19;100.00;97072.41;5007362;28;20088;-58
2023/03/03 05:19:58;;;;;;;0.50;0.50;;;;;;;5.06;100.00;97051.53;5007556;28;20582;-57
2023/03/03 05:22:25;;;;;;;0.50;0.50;;;;;;;5.13;100.00;97068.28;5006096;28;20424;-56
2023/03/03 05:24:52;;;;;;;0.50;0.50;;;;;;;4.62;100.00;96979.72;5006499;28;20476;-56
2023/03/03 05:27:19;;;;;;;0.50;0.50;;;;;;;5.22;100.00;97069.00;5007610;28;20060;-58
2023/03/03 05:29:46;;;;;;;0.40;0.40;;;;;;;4.53;100.00;96973.50;5007837;28;20129;-56
2023/03/03 05:32:12;;;;;;;0.50;0.50;;;;;;;5.31;100.00;97053.28;5007341;28;20058;-58
2023/03/03 05:34:39;;;;;;;0.40;0.40;;;;;;;5.14;100.00;97065.19;5007489;28;20054;-58
2023/03/03 05:37:06;;;;;;;0.50;0.50;;;;;;;4.74;100.00;97005.59;5006842;28;20085;-57
2023/03/03 05:39:33;;;;;;;0.40;0.40;;;;;;;4.84;100.00;97065.59;5006202;28;20119;-55
2023/03/03 05:42:00;;;;;;;0.50;0.50;;;;;;;4.72;100.00;97074.53;5007716;28;20160;-56
2023/03/03 05:44:27;;;;;;;0.40;0.40;;;;;;;4.83;100.00;97069.44;5007671;28;20080;-58
2023/03/03 05:46:55;;;;;;;0.50;0.50;;;;;;;4.96;100.00;97071.97;5007088;28;20061;-57
2023/03/03 05:49:22;;;;;;;0.50;0.50;;;;;;;4.69;100.00;96993.69;5007001;28;20172;-58
2023/03/03 05:51:48;;;;;;;0.50;0.50;;;;;;;5.34;100.00;97036.13;5007354;28;20077;-56
2023/03/03 05:54:15;;;;;;;0.50;0.50;;;;;;;5.76;100.00;97060.44;4996272;28;20144;-56
2023/03/03 05:56:42;;;;;;;0.50;0.50;;;;;;;5.95;100.00;97059.94;4989596;28;20276;-56
2023/03/03 05:59:08;;;;;;;0.50;0.50;;;;;;;6.00;100.00;97048.72;5006436;28;20086;-56
2023/03/03 06:01:35;;;;;;;0.50;0.50;;;;;;;6.16;100.00;97041.44;5007067;28;20085;-58
2023/03/03 06:04:02;;;;;;;0.52;0.52;;;;;;;6.48;100.00;97059.78;5007046;28;20076;-59
2023/03/03 06:06:28;;;;;;;0.60;0.60;;;;;;;6.60;100.00;97054.28;5007037;28;20141;-59
2023/03/03 06:08:55;;;;;;;0.60;0.60;;;;;;;6.69;100.00;97054.16;5006839;28;20053;-57
2023/03/03 06:11:23;;;;;;;0.60;0.60;;;;;;;6.75;100.00;97045.31;5006993;28;20057;-56
2023/03/03 06:13:49;;;;;;;0.57;0.57;;;;;;;6.50;98.11;97012.66;5006682;28;20050;-57
2023/03/03 06:16:16;;;;;;;0.60;0.60;;;;;;;6.83;98.79;97055.41;5006587;28;20124;-57
2023/03/03 06:18:43;;;;;;;0.60;0.60;;;;;;;6.96;98.28;97065.25;5006524;28;20129;-57
2023/03/03 06:21:10;;;;;;;0.60;0.60;;;;;;;6.92;96.87;97039.59;5006796;28;20436;-58
2023/03/03 06:23:37;;;;;;;0.60;0.60;;;;;;;7.19;96.54;97058.09;5006587;28;20077;-58
2023/03/03 06:26:04;;;;;;;0.63;0.63;;;;;;;7.11;94.91;97064.53;5006192;28;20111;-58
2023/03/03 06:28:31;;;;;;;0.60;0.60;;;;;;;7.28;94.32;97056.03;5006437;28;20054;-58
2023/03/03 06:30:57;;;;;;;0.60;0.60;;;;;;;7.31;93.84;97066.34;5006244;28;20050;-56
2023/03/03 06:33:25;;;;;;;0.60;0.60;;;;;;;7.35;92.95;97067.25;5006195;28;20050;-59
2023/03/03 06:35:53;;;;;;;0.60;0.60;;;;;;;7.07;91.09;97027.84;5006236;28;20436;-58
2023/03/03 06:38:20;;;;;;;0.60;0.60;;;;;;;7.28;90.92;97067.03;5005810;28;20168;-56
2023/03/03 06:40:47;;;;;;;0.60;0.60;;;;;;;7.18;91.49;97056.50;5006212;28;20049;-58
2023/03/03 06:43:13;;;;;;;0.70;0.70;;;;;;;6.96;91.38;97023.16;5005807;28;20508;-57
2023/03/03 06:45:42;;;;;;;0.60;0.60;;;;;;;7.42;91.70;97077.66;5006071;28;20085;-56
2023/03/03 06:48:08;;;;;;;0.60;0.60;;;;;;;6.57;91.59;96949.59;5005438;28;20069;-56
2023/03/03 06:50:35;;;;;;;0.60;0.60;;;;;;;7.52;92.17;97077.97;5005800;28;20127;-58
2023/03/03 06:53:22;;;;;;;0.60;0.60;;;;;;;7.69;89.54;97083.22;5005755;28;20057;-57
2023/03/03 06:55:49;;;;;;;0.70;0.70;;;;;;;7.69;87.68;97083.22;5005653;28;20479;-57
2023/03/03 06:58:17;;;;;;;0.70;0.70;;;;;;;7.74;87.10;97079.41;5005647;28;20050;-58
2023/03/03 07:00:59;;;;;;;0.60;0.60;;;;;;;7.72;86.88;97088.03;5005249;28;20135;-55
2023/03/03 07:03:32;;;;;;;0.70;0.70;;;;;;;7.58;86.58;97087.63;5004114;28;20531;-57
2023/03/03 07:05:59;;;;;;;0.70;0.70;;;;;;;7.70;87.20;97095.84;5005713;28;20136;-56
2023/03/03 07:08:30;;;;;;;0.70;0.70;;;;;;;7.74;86.79;97080.19;5005524;28;20046;-57
2023/03/03 07:11:05;;;;;;;0.65;0.65;;;;;;;5.94;85.49;96780.72;5004497;28;20061;-58
2023/03/03 07:13:32;;;;;;;0.70;0.70;;;;;;;7.38;84.26;97027.97;5005080;28;20050;-58
2023/03/03 07:16:08;;;;;;;0.70;0.70;;;;;;;7.14;84.78;96950.13;5005139;28;20112;-60
2023/03/03 07:18:37;;;;;;;0.68;0.68;;;;;;;8.18;84.68;97083.78;5005195;28;20061;-57
2023/03/03 07:21:24;;;;;;;0.75;0.75;;;;;;;8.06;84.45;97052.69;5005067;28;20054;-57
2023/03/03 07:23:52;;;;;;;0.60;0.60;;;;;;;8.39;84.88;97078.03;5005055;28;20068;-57
2023/03/03 07:26:29;;;;;;;0.68;0.68;;;;;;;7.85;80.35;96980.41;5004179;28;20045;-57
2023/03/03 07:29:13;;;;;;;0.70;0.70;;;;;;;8.66;79.47;97071.63;5004918;28;20046;-57
2023/03/03 07:31:41;;;;;;;0.70;0.70;;;;;;;8.10;80.54;97064.63;5005915;28;20535;-57
2023/03/03 07:34:39;;;;;;;0.70;0.70;;;;;;;8.05;82.08;97067.63;5003125;28;20046;-55
2023/03/03 07:37:17;;;;;;;0.70;0.70;;;;;;;8.14;80.97;97060.00;4997897;28;20053;-56
2023/03/03 07:39:46;;;;;;;0.60;0.60;;;;;;;8.12;80.82;97067.84;5004767;28;20054;-57
2023/03/03 07:42:40;;;;;;;0.70;0.70;;;;;;;8.54;78.56;97063.44;5004366;28;20054;-57
2023/03/03 07:45:31;;;;;;;0.70;0.70;;;;;;;8.42;78.68;97069.06;5004614;28;20161;-56
2023/03/03 07:48:21;;;;;;;0.70;0.70;;;;;;;8.65;77.78;97053.44;5004640;28;20057;-58
2023/03/03 07:50:48;;;;;;;0.70;0.70;;;;;;;6.41;76.74;96699.19;5014541;28;20049;-57
2023/03/03 07:53:26;;;;;;;0.70;0.70;;;;;;;8.61;75.59;97058.09;5024093;28;20052;-56
2023/03/03 07:55:53;;;;;;;0.70;0.70;;;;;;;7.60;76.14;97088.06;5019735;28;20074;-58
2023/03/03 07:58:40;;;;;;;0.70;0.70;;;;;;;7.81;74.35;97067.78;5015745;28;20131;-56
2023/03/03 08:01:28;;;;;;;0.70;0.70;;;;;;;7.52;77.63;97058.69;5017777;28;20057;-57
2023/03/03 08:03:56;;;;;;;0.60;0.60;;;;;;;7.34;76.90;97133.72;5004786;28;20133;-57
2023/03/03 08:06:35;;;;;;;0.60;0.60;;;;;;;7.24;77.75;97054.31;5001172;28;20050;-57
2023/03/03 08:09:11;;;;;;;0.70;0.70;;;;;;;7.92;75.87;97047.59;5002794;28;20161;-56
2023/03/03 08:11:55;;;;;;;0.70;0.70;;;;;;;7.46;78.74;97040.00;5008201;28;20136;-56
2023/03/03 08:14:28;;;;;;;0.65;0.65;;;;;;;7.14;80.36;97047.34;5002891;28;20065;-57
2023/03/03 08:16:56;;;;;;;0.70;0.70;;;;;;;7.29;79.74;97009.97;5011663;28;20054;-57
2023/03/03 08:19:28;;;;;;;0.70;0.70;;;;;;;7.95;76.74;97029.56;5010107;28;20504;-57
2023/03/03 08:22:02;;;;;;;0.63;0.63;;;;;;;8.37;75.18;97047.22;5011018;28;20081;-57
2023/03/03 08:24:29;;;;;;;0.70;0.70;;;;;;;8.58;74.10;97042.25;5010703;28;20049;-58
2023/03/03 08:26:55;;;;;;;0.70;0.70;;;;;;;8.66;72.79;97027.47;5002032;28;20060;-58
2023/03/03 08:29:22;;;;;;;0.60;0.60;;;;;;;8.93;71.07;97043.09;4985941;28;20050;-58
2023/03/03 08:31:49;;;;;;;0.70;0.70;;;;;;;8.64;71.07;96982.84;5005678;28;20065;-59
2023/03/03 08:34:17;;;;;;;0.75;0.75;;;;;;;9.15;69.37;97051.50;5003728;28;20369;-56
2023/03/03 08:36:43;;;;;;;0.80;0.80;;;;;;;9.17;69.30;96982.03;5008380;28;20089;-57
2023/03/03 08:39:10;;;;;;;0.70;0.70;;;;;;;9.67;68.97;97006.78;5017318;28;20054;-58
2023/03/03 08:41:37;;;;;;;0.75;0.75;;;;;;;9.93;68.03;97020.72;5009150;28;20060;-56
2023/03/03 08:44:04;;;;;;;0.80;0.80;;;;;;;9.88;66.44;97023.78;5003806;28;20050;-59
2023/03/03 08:46:31;;;;;;;0.75;0.75;;;;;;;9.94;65.50;97000.19;5007820;28;20488;-58
2023/03/03 08:48:58;;;;;;;0.80;0.80;;;;;;;10.21;64.73;97007.44;5003410;28;20053;-58
2023/03/03 08:51:25;;;;;;;0.80;0.80;;;;;;;10.36;65.36;97020.38;5016583;28;20140;-58
2023/03/03 08:53:52;;;;;;;0.80;0.80;;;;;;;10.32;64.68;97024.25;5022580;28;20520;-58
2023/03/03 08:56:18;;;;;;;0.70;0.70;;;;;;;9.73;64.84;96938.94;5004271;28;20057;-55
2023/03/03 08:58:46;;;;;;;0.80;0.80;;;;;;;10.25;65.19;97015.81;5002699;28;20050;-56
2023/03/03 09:01:27;;;;;;;0.80;0.80;;;;;;;10.48;63.94;97008.28;5001059;28;20054;-58
2023/03/03 09:03:54;;;;;;;0.80;0.80;;;;;;;10.42;63.98;97016.13;5002124;28;20141;-56
2023/03/03 09:06:21;;;;;;;0.90;0.90;;;;;;;10.25;63.19;97005.53;5008434;28;20057;-61
2023/03/03 09:08:48;;;;;;;0.80;0.80;;;;;;;10.29;64.25;97017.47;5001413;28;20136;-61
2023/03/03 09:11:21;;;;;;;0.90;0.90;;;;;;;10.31;65.33;97009.59;5003192;28;20432;-57
2023/03/03 09:13:52;;;;;;;0.80;0.80;;;;;;;10.21;66.35;96999.13;5000395;28;20066;-57
2023/03/03 09:16:21;;;;;;;0.90;0.90;;;;;;;10.32;65.76;96989.03;5002772;28;20437;-57
2023/03/03 09:18:48;;;;;;;0.80;0.80;;;;;;;10.33;65.02;96984.31;5003333;28;20132;-59
2023/03/03 09:21:25;;;;;;;0.88;0.88;;;;;;;10.34;64.48;96999.75;5009447;28;20053;-57
2023/03/03 09:23:55;;;;;;;0.80;0.80;;;;;;;10.22;64.54;96973.06;4983231;28;20156;-56
2023/03/03 09:26:30;;;;;;;0.70;0.70;;;;;;;10.38;63.41;96982.03;5001315;28;20562;-57
2023/03/03 09:29:09;;;;;;;0.90;0.90;;;;;;;10.31;64.51;96993.00;5003057;28;20204;-61
2023/03/03 09:32:03;;;;;;;0.80;0.80;;;;;;;10.33;64.41;96985.13;5008707;28;20165;-54
2023/03/03 09:34:40;;;;;;;0.80;0.80;;;;;;;10.31;65.94;96998.53;5003314;28;20084;-58
2023/03/03 09:37:35;;;;;;;0.80;0.80;;;;;;;9.48;66.47;96910.03;5012456;28;20045;-59
2023/03/03 09:40:37;;;;;;;0.80;0.80;;;;;;;9.55;66.95;96993.09;5007581;28;20072;-55
2023/03/03 09:43:11;;;;;;;0.80;0.80;;;;;;;9.55;68.75;96976.50;4990650;28;20054;-65
2023/03/03 09:45:46;;;;;;;0.80;0.80;;;;;;;10.01;68.84;96994.78;5005997;28;20053;-60
2023/03/03 09:48:36;;;;;;;0.80;0.80;;;;;;;10.18;68.12;96988.78;5006970;28;20092;-60
2023/03/03 09:51:18;;;;;;;0.80;0.80;;;;;;;9.65;67.71;96898.50;5005932;28;20057;-57
2023/03/03 09:54:20;;;;;;;0.80;0.80;;;;;;;10.48;67.72;96986.94;4989212;28;20111;-58
2023/03/03 09:57:04;;;;;;;0.80;0.80;;;;;;;10.48;67.44;96981.41;4984857;28;20050;-67
2023/03/03 10:00:00;;;;;;;0.80;0.80;;;;;;;10.41;67.14;96980.50;4987544;28;20626;-57
2023/03/03 10:02:33;;;;;;;0.90;0.90;;;;;;;10.07;67.87;96979.50;4986840;28;20066;-57
2023/03/03 10:05:08;;;;;;;0.88;0.88;;;;;;;10.47;66.94;96973.47;4987434;28;20058;-66
2023/03/03 10:07:42;;;;;;;0.90;0.90;;;;;;;10.46;68.06;96983.72;4987114;28;20058;-66
2023/03/03 10:10:40;;;;;;;0.80;0.80;;;;;;;10.53;66.72;96972.78;5002133;28;20046;-66
2023/03/03 10:13:28;;;;;;;0.90;0.90;;;;;;;10.51;67.86;96969.56;4966124;28;20047;-63
2023/03/03 10:16:11;;;;;;;0.70;0.70;;;;;;;10.28;67.78;96954.97;4987310;28;20054;-64
2023/03/03 10:18:59;;;;;;;0.82;0.82;;;;;;;10.41;67.27;96953.63;4986878;28;20448;-57
2023/03/03 10:21:41;;;;;;;0.90;0.90;;;;;;;10.28;68.86;96954.97;5001809;28;20077;-66
2023/03/03 10:24:30;;;;;;;0.80;0.80;;;;;;;10.13;68.02;96958.66;4986952;28;20089;-65
2023/03/03 10:26:57;;;;;;;0.70;0.70;;;;;;;9.88;69.63;96951.84;4986689;28;20058;-64
2023/03/03 10:30:01;;;;;;;0.70;0.70;;;;;;;10.13;68.24;96946.81;4986760;28;20145;-57
2023/03/03 10:32:50;;;;;;;0.80;0.80;;;;;;;9.99;67.83;96930.72;5001045;28;20491;-72
2023/03/03 10:35:17;;;;;;;0.80;0.80;;;;;;;10.24;68.25;96937.47;4986168;28;20050;-57
2023/03/03 10:37:56;;;;;;;0.80;0.80;;;;;;;9.97;67.12;96869.44;4986283;28;20058;-71
2023/03/03 10:40:51;;;;;;;0.80;0.80;;;;;;;10.29;67.34;96934.41;4986457;28;20213;-70
2023/03/03 10:43:29;;;;;;;0.80;0.80;;;;;;;10.40;67.26;96923.53;4986499;28;20152;-59
2023/03/03 10:46:26;;;;;;;0.80;0.80;;;;;;;10.32;68.13;96930.13;5000846;28;20046;-56
2023/03/03 10:49:01;;;;;;;0.70;0.70;;;;;;;10.24;66.92;96923.66;4986599;28;20071;-70
2023/03/03 10:51:36;;;;;;;0.80;0.80;;;;;;;10.24;67.63;96918.09;4986563;28;20089;-57
2023/03/03 10:54:21;;;;;;;0.80;0.80;;;;;;;10.12;68.08;96917.50;5001831;28;20058;-71
2023/03/03 10:57:03;;;;;;;0.80;0.80;;;;;;;10.02;68.15;96918.91;4986843;28;20168;-59
2023/03/03 10:59:51;;;;;;;0.80;0.80;;;;;;;9.98;69.40;96911.72;5015942;28;20096;-60
2023/03/03 11:02:45;;;;;;;0.80;0.80;;;;;;;10.06;68.74;96908.69;5003929;28;20050;-60
2023/03/03 11:05:28;;;;;;;0.70;0.70;;;;;;;10.12;67.67;96907.25;5005178;28;20523;-58
2023/03/03 11:08:01;;;;;;;0.80;0.80;;;;;;;10.11;67.69;96905.66;5005274;28;20527;-64
2023/03/03 11:10:53;;;;;;;0.70;0.70;;;;;;;10.13;66.85;96883.94;5005636;28;20069;-58
2023/03/03 11:13:45;;;;;;;0.70;0.70;;;;;;;10.17;68.22;96904.16;5005526;28;20112;-62
2023/03/03 11:16:30;;;;;;;0.80;0.80;;;;;;;10.26;68.01;96895.59;5005309;28;20509;-60
2023/03/03 11:19:15;;;;;;;0.80;0.80;;;;;;;10.31;69.13;96898.84;5003844;28;20057;-59
2023/03/03 11:21:50;;;;;;;0.80;0.80;;;;;;;10.25;67.63;96899.53;5003497;28;20108;-58
2023/03/03 11:24:49;;;;;;;0.80;0.80;;;;;;;10.25;68.71;96905.88;5003883;28;20093;-63
2023/03/03 11:27:25;;;;;;;0.80;0.80;;;;;;;10.11;69.12;96900.13;5005275;28;20506;-61
2023/03/03 11:30:23;;;;;;;0.80;0.80;;;;;;;10.07;68.18;96899.25;5003679;28;20081;-63
2023/03/03 11:33:04;;;;;;;0.70;0.70;;;;;;;9.61;68.37;96858.13;5004500;28;20065;-62
2023/03/03 11:35:44;;;;;;;0.80;0.80;;;;;;;9.87;68.51;96905.19;5005226;28;20486;-63
2023/03/03 11:38:30;;;;;;;0.77;0.77;;;;;;;9.78;71.53;96899.13;5003459;28;20516;-57
2023/03/03 11:41:07;;;;;;;0.70;0.70;;;;;;;9.68;71.77;96897.75;5005004;28;20049;-57
2023/03/03 11:43:50;;;;;;;0.80;0.80;;;;;;;9.51;72.91;96898.25;5004920;28;20061;-61
2023/03/03 11:46:35;;;;;;;0.70;0.70;;;;;;;9.46;73.98;96892.19;5005224;28;20053;-56
2023/03/03 11:49:37;;;;;;;0.80;0.80;;;;;;;9.43;77.33;96893.75;5019544;28;20057;-55
2023/03/03 11:52:41;;;;;;;0.70;0.70;;;;;;;9.34;75.69;96890.41;5005253;28;20499;-58
2023/03/03 11:55:40;;;;;;;0.70;0.70;;;;;;;9.28;77.61;96889.09;5002982;28;20592;-59
2023/03/03 11:58:19;;;;;;;0.80;0.80;;;;;;;9.17;79.38;96886.13;5003517;28;20421;-59
2023/03/03 12:01:04;;;;;;;0.70;0.70;;;;;;;9.10;80.68;96882.44;5004569;28;20054;-60
2023/03/03 12:03:43;;;;;;;0.70;0.70;;;;;;;8.99;79.64;96889.72;5004114;28;20508;-59
2023/03/03 12:06:18;;;;;;;0.70;0.70;;;;;;;8.76;80.38;96877.78;5004611;28;20421;-61